createdAt,value
2019-03-24T00:01:41.695Z,4.60
2019-03-24T00:06:28.293Z,4.40
2019-03-24T00:11:14.555Z,4.20
2019-03-24T00:16:01.294Z,4.10
2019-03-24T00:20:47.475Z,4.00
2019-03-24T00:25:33.887Z,4.40
2019-03-24T00:30:21.214Z,4.30
2019-03-24T00:35:07.696Z,4.10
2019-03-24T00:39:53.920Z,4.10
2019-03-24T00:44:40.215Z,4.20
2019-03-24T00:49:26.516Z,4.20
2019-03-24T00:54:12.870Z,4.00
2019-03-24T00:58:59.050Z,3.80
2019-03-24T01:03:45.348Z,3.50
2019-03-24T01:08:31.730Z,3.40
2019-03-24T01:13:18.002Z,3.50
2019-03-24T01:18:04.413Z,3.60
2019-03-24T01:22:50.723Z,3.30
2019-03-24T01:27:36.942Z,3.30
2019-03-24T01:32:23.191Z,3.20
2019-03-24T01:37:09.391Z,3.30
2019-03-24T01:41:55.616Z,3.20
2019-03-24T01:46:41.950Z,3.30
2019-03-24T01:51:28.345Z,3.10
2019-03-24T01:56:14.527Z,2.80
2019-03-24T02:01:00.785Z,3.00
2019-03-24T02:05:47.036Z,2.80
2019-03-24T02:10:33.251Z,2.80
2019-03-24T02:15:19.657Z,2.90
2019-03-24T02:20:06.296Z,3.00
2019-03-24T02:24:52.504Z,2.70
2019-03-24T02:29:38.785Z,2.30
2019-03-24T02:34:24.969Z,2.30
2019-03-24T02:39:11.274Z,2.70
2019-03-24T02:43:57.526Z,2.70
2019-03-24T02:48:43.766Z,2.70
2019-03-24T02:53:29.993Z,2.50
2019-03-24T02:58:16.297Z,2.40
2019-03-24T03:03:02.490Z,2.30
2019-03-24T03:07:48.706Z,2.10
2019-03-24T03:12:34.962Z,2.20
2019-03-24T03:17:21.256Z,2.30
2019-03-24T03:22:07.590Z,2.00
2019-03-24T03:26:53.829Z,2.10
2019-03-24T03:31:40.051Z,2.20
2019-03-24T03:36:26.382Z,1.90
2019-03-24T03:41:12.524Z,1.80
2019-03-24T03:45:58.793Z,1.70
2019-03-24T03:50:45.006Z,1.60
2019-03-24T03:55:31.296Z,1.40
2019-03-24T04:00:19.130Z,1.50
2019-03-24T04:05:06.135Z,2.00
2019-03-24T04:09:52.369Z,2.20
2019-03-24T04:14:38.628Z,1.90
2019-03-24T04:19:24.909Z,1.70
2019-03-24T04:24:11.221Z,1.60
2019-03-24T04:28:57.386Z,1.50
2019-03-24T04:33:43.683Z,1.20
2019-03-24T04:38:30.063Z,1.30
2019-03-24T04:43:16.346Z,1.60
2019-03-24T04:48:02.533Z,1.60
2019-03-24T04:52:48.805Z,1.90
2019-03-24T04:57:35.169Z,1.90
2019-03-24T05:02:21.446Z,1.40
2019-03-24T05:07:07.927Z,1.30
2019-03-24T05:11:54.193Z,1.00
2019-03-24T05:16:40.432Z,0.80
2019-03-24T05:21:26.697Z,0.90
2019-03-24T05:26:12.965Z,0.90
2019-03-24T05:30:59.341Z,0.90
2019-03-24T05:35:45.643Z,1.10
2019-03-24T05:40:31.911Z,1.20
2019-03-24T05:45:18.236Z,1.30
2019-03-24T05:50:04.841Z,1.30
2019-03-24T05:54:51.100Z,1.40
2019-03-24T05:59:37.768Z,1.50
2019-03-24T06:04:24.051Z,1.40
2019-03-24T06:09:10.579Z,1.50
2019-03-24T06:13:56.820Z,1.20
2019-03-24T06:18:43.182Z,1.20
2019-03-24T06:23:29.482Z,1.40
2019-03-24T06:28:15.758Z,1.60
2019-03-24T06:33:02.094Z,1.70
2019-03-24T06:37:48.401Z,2.00
2019-03-24T06:42:34.697Z,2.10
2019-03-24T06:47:21.059Z,2.10
2019-03-24T06:52:07.593Z,2.20
2019-03-24T06:56:53.834Z,2.50
2019-03-24T07:01:40.205Z,3.30
2019-03-24T07:06:26.537Z,4.20
2019-03-24T07:11:13.879Z,4.90
2019-03-24T07:16:00.778Z,5.60
2019-03-24T07:20:47.447Z,6.30
2019-03-24T07:25:33.755Z,7.10
2019-03-24T07:30:20.344Z,7.70
2019-03-24T07:35:06.927Z,8.30
2019-03-24T07:39:55.169Z,8.80
2019-03-24T07:44:41.949Z,9.20
2019-03-24T07:49:28.484Z,9.50
2019-03-24T07:54:14.762Z,9.60
2019-03-24T07:59:01.189Z,10.10
2019-03-24T08:03:47.498Z,10.70
2019-03-24T08:08:43.852Z,11.50
2019-03-24T08:13:22.153Z,11.90
2019-03-24T08:18:08.567Z,12.50
2019-03-24T08:22:55.229Z,12.90
2019-03-24T08:27:42.072Z,13.40
2019-03-24T08:32:28.557Z,13.90
2019-03-24T08:37:14.887Z,14.00
2019-03-24T08:42:01.621Z,13.90
2019-03-24T08:46:47.940Z,14.60
2019-03-24T08:51:34.466Z,15.20
2019-03-24T08:56:20.824Z,15.50
2019-03-24T09:01:07.481Z,15.90
2019-03-24T09:05:54.048Z,16.20
2019-03-24T09:10:40.528Z,16.60
2019-03-24T09:15:27.296Z,17.20
2019-03-24T09:20:14.116Z,18.00
2019-03-24T09:25:00.679Z,18.30
2019-03-24T09:29:47.111Z,18.20
2019-03-24T09:34:33.872Z,18.30
2019-03-24T09:39:20.531Z,18.60
2019-03-24T09:44:06.887Z,19.10
2019-03-24T09:49:02.709Z,19.40
2019-03-24T09:53:41.457Z,20.00
2019-03-24T09:58:28.043Z,20.80
2019-03-24T10:03:14.733Z,21.20
2019-03-24T10:08:01.034Z,21.40
2019-03-24T10:12:47.651Z,21.10
2019-03-24T10:17:34.043Z,21.40
2019-03-24T10:22:20.484Z,21.00
2019-03-24T10:27:06.825Z,21.30
2019-03-24T10:31:53.152Z,21.70
2019-03-24T10:36:39.598Z,21.70
2019-03-24T10:41:26.043Z,22.10
2019-03-24T10:46:12.371Z,22.50
2019-03-24T10:50:58.817Z,22.10
2019-03-24T10:55:45.076Z,22.40
2019-03-24T11:00:42.455Z,22.70
2019-03-24T11:05:28.716Z,22.40
2019-03-24T11:10:15.492Z,22.90
2019-03-24T11:15:01.991Z,22.90
2019-03-24T11:19:48.291Z,22.20
2019-03-24T11:24:34.753Z,22.40
2019-03-24T11:29:21.208Z,22.10
2019-03-24T11:34:07.572Z,23.20
2019-03-24T11:38:53.961Z,23.90
2019-03-24T11:43:40.703Z,23.60
2019-03-24T11:48:27.526Z,24.50
2019-03-24T11:53:13.975Z,24.40
2019-03-24T11:58:05.755Z,25.50
2019-03-24T12:02:48.719Z,25.10
2019-03-24T12:07:35.500Z,25.10
2019-03-24T12:12:22.073Z,25.60
2019-03-24T12:17:08.749Z,26.70
2019-03-24T12:21:57.298Z,25.30
2019-03-24T12:26:43.646Z,26.20
2019-03-24T12:31:32.516Z,26.60
2019-03-24T12:36:19.388Z,26.60
2019-03-24T12:41:05.884Z,26.80
2019-03-24T12:45:52.382Z,27.50
2019-03-24T12:50:38.766Z,27.30
2019-03-24T12:55:25.321Z,26.70
2019-03-24T13:00:13.402Z,27.60
2019-03-24T13:05:00.044Z,28.10
2019-03-24T13:09:46.790Z,27.80
2019-03-24T13:14:34.528Z,27.50
2019-03-24T13:19:20.991Z,26.60
2019-03-24T13:24:07.375Z,27.60
2019-03-24T13:28:53.913Z,27.30
2019-03-24T13:33:40.309Z,27.40
2019-03-24T13:38:26.570Z,26.90
2019-03-24T13:43:13.043Z,27.80
2019-03-24T13:47:59.343Z,28.30
2019-03-24T13:52:47.661Z,29.70
2019-03-24T13:57:34.091Z,28.70
2019-03-24T14:02:39.056Z,29.10
2019-03-24T14:07:25.586Z,28.10
2019-03-24T14:12:12.476Z,28.00
2019-03-24T14:16:59.217Z,29.00
2019-03-24T14:21:46.098Z,29.70
2019-03-24T14:26:33.071Z,29.20
2019-03-24T14:31:19.744Z,28.40
2019-03-24T14:36:06.760Z,29.90
2019-03-24T14:40:53.703Z,29.90
2019-03-24T14:45:40.055Z,30.50
2019-03-24T14:50:27.497Z,30.80
2019-03-24T14:55:14.457Z,30.50
2019-03-24T15:00:01.166Z,30.60
2019-03-24T15:04:48.190Z,30.30
2019-03-24T15:09:34.679Z,30.40
2019-03-24T15:14:20.952Z,30.90
2019-03-24T15:19:07.517Z,30.10
2019-03-24T15:23:54.203Z,29.40
2019-03-24T15:28:40.946Z,29.60
2019-03-24T15:33:33.178Z,29.40
2019-03-24T15:38:19.647Z,30.50
2019-03-24T15:43:07.276Z,29.30
2019-03-24T15:47:55.608Z,29.20
2019-03-24T15:52:42.186Z,30.50
2019-03-24T15:57:28.793Z,28.90
2019-03-24T16:02:15.289Z,27.70
2019-03-24T16:07:01.619Z,27.40
2019-03-24T16:11:48.036Z,28.00
2019-03-24T16:16:35.332Z,28.80
2019-03-24T16:21:27.730Z,28.80
2019-03-24T16:26:10.038Z,28.70
2019-03-24T16:31:00.774Z,27.10
2019-03-24T16:35:47.696Z,25.90
2019-03-24T16:40:34.449Z,25.40
2019-03-24T16:45:21.085Z,24.60
2019-03-24T16:50:08.738Z,24.30
2019-03-24T16:54:55.424Z,23.20
2019-03-24T17:00:00.960Z,21.30
2019-03-24T17:04:47.592Z,18.80
2019-03-24T17:09:34.595Z,17.80
2019-03-24T17:14:21.066Z,17.20
2019-03-24T17:19:07.720Z,16.70
2019-03-24T17:23:54.156Z,16.30
2019-03-24T17:28:41.066Z,15.90
2019-03-24T17:33:27.304Z,15.30
2019-03-24T17:38:14.046Z,15.10
2019-03-24T17:43:00.485Z,14.90
2019-03-24T17:47:47.114Z,14.50
2019-03-24T17:52:33.522Z,14.00
2019-03-24T17:57:19.948Z,13.80
2019-03-24T18:02:14.332Z,13.70
2019-03-24T18:06:54.894Z,13.40
2019-03-24T18:11:41.501Z,13.10
2019-03-24T18:16:28.334Z,12.90
2019-03-24T18:21:16.637Z,12.90
2019-03-24T18:26:03.947Z,12.70
2019-03-24T18:30:50.469Z,12.50
2019-03-24T18:35:39.374Z,12.50
2019-03-24T18:40:45.194Z,12.30
2019-03-24T18:45:31.995Z,11.80
2019-03-24T18:50:18.944Z,11.50
2019-03-24T18:55:05.942Z,10.50
2019-03-24T18:59:52.845Z,10.40
2019-03-24T19:04:39.457Z,10.30
2019-03-24T19:09:26.022Z,10.40
2019-03-24T19:14:12.538Z,10.30
2019-03-24T19:18:59.268Z,10.20
2019-03-24T19:23:46.055Z,10.20
2019-03-24T19:28:32.716Z,10.00
2019-03-24T19:33:20.578Z,9.90
2019-03-24T19:38:07.600Z,10.80
2019-03-24T19:42:54.095Z,10.90
2019-03-24T19:47:40.704Z,11.00
2019-03-24T19:52:27.554Z,11.00
2019-03-24T19:57:14.266Z,11.00
2019-03-24T20:02:00.956Z,11.40
2019-03-24T20:06:47.865Z,11.60
2019-03-24T20:11:35.127Z,11.70
2019-03-24T20:16:21.808Z,11.80
2019-03-24T20:21:10.071Z,11.80
2019-03-24T20:25:56.838Z,11.90
2019-03-24T20:30:43.791Z,12.00
2019-03-24T20:35:33.353Z,11.90
2019-03-24T20:40:21.105Z,12.40
2019-03-24T20:45:08.276Z,14.10
2019-03-24T20:49:54.857Z,14.40
2019-03-24T20:54:41.315Z,13.30
2019-03-24T20:59:27.857Z,12.30
2019-03-24T21:04:14.728Z,11.70
2019-03-24T21:09:01.394Z,11.40
2019-03-24T21:13:48.422Z,11.40
2019-03-24T21:18:34.916Z,11.40
2019-03-24T21:23:29.469Z,11.30
2019-03-24T21:28:10.062Z,10.90
2019-03-24T21:32:56.531Z,10.40
2019-03-24T21:37:43.519Z,10.10
2019-03-24T21:42:30.121Z,9.90
2019-03-24T21:47:16.651Z,10.00
2019-03-24T21:52:02.972Z,10.00
2019-03-24T21:56:49.607Z,10.00
2019-03-24T22:01:36.866Z,9.90
2019-03-24T22:06:23.322Z,9.70
2019-03-24T22:11:09.774Z,9.40
2019-03-24T22:15:57.138Z,9.20
2019-03-24T22:20:48.888Z,9.30
2019-03-24T22:25:32.338Z,9.30
2019-03-24T22:30:19.173Z,9.10
2019-03-24T22:35:05.957Z,9.10
2019-03-24T22:39:52.262Z,9.10
2019-03-24T22:44:38.702Z,8.90
2019-03-24T22:49:25.012Z,8.70
2019-03-24T22:54:11.304Z,8.20
2019-03-24T22:58:57.588Z,8.20
2019-03-24T23:03:44.254Z,8.20
2019-03-24T23:08:30.468Z,8.50
2019-03-24T23:13:17.009Z,8.70
2019-03-24T23:18:03.351Z,8.60
2019-03-24T23:22:49.658Z,8.40
2019-03-24T23:27:35.902Z,7.90
2019-03-24T23:32:22.173Z,7.60
2019-03-24T23:37:08.428Z,7.70
2019-03-24T23:41:54.734Z,7.70
2019-03-24T23:46:41.012Z,7.70
2019-03-24T23:51:27.374Z,7.30
2019-03-24T23:56:13.603Z,7.00
